Time;durP1;ratioP1;P1;durP2;ratioP2;P2;SDS_P1;SDS_P2;PMS_P1;PMS_P2;Temp;Humidity;BMP_temperature;BMP_pressure;BME280_temperature;BME280_humidity;BME280_pressure;Samples;Min_cycle;Max_cycle;Signal;HPM_P1;HPM_P2
2022/06/15 00:01:32;;;;;;;5.95;4.15;;;16.90;61.10;;;;;;5037605;28;20488;-70
2022/06/15 00:04:03;;;;;;;4.72;4.30;;;16.80;60.90;;;;;;5027126;28;20511;-70
2022/06/15 00:06:32;;;;;;;4.95;4.45;;;16.70;62.50;;;;;;5037959;28;20874;-70
2022/06/15 00:09:00;;;;;;;6.57;4.40;;;16.70;61.20;;;;;;5037068;28;20448;-71
2022/06/15 00:11:30;;;;;;;5.70;4.22;;;16.70;62.10;;;;;;5040462;28;20437;-71
2022/06/15 00:14:02;;;;;;;5.43;4.50;;;16.60;61.90;;;;;;5031197;28;20517;-73
2022/06/15 00:16:29;;;;;;;5.85;4.65;;;16.50;61.60;;;;;;5037988;28;20514;-70
2022/06/15 00:18:56;;;;;;;6.57;4.57;;;16.50;63.60;;;;;;5032643;28;21100;-73
2022/06/15 00:21:24;;;;;;;6.00;4.75;;;16.50;62.80;;;;;;5036684;28;20433;-72
2022/06/15 00:23:51;;;;;;;4.97;4.50;;;16.50;64.10;;;;;;5031212;28;20504;-72
2022/06/15 00:26:18;;;;;;;5.32;4.60;;;16.40;63.50;;;;;;5031263;28;20445;-72
2022/06/15 00:28:45;;;;;;;6.60;4.40;;;16.40;63.20;;;;;;5033501;28;20431;-71
2022/06/15 00:31:12;;;;;;;6.22;4.45;;;16.40;63.30;;;;;;5037492;28;20523;-72
2022/06/15 00:33:39;;;;;;;6.25;4.80;;;16.40;62.90;;;;;;5027449;28;20438;-71
2022/06/15 00:36:08;;;;;;;5.07;4.57;;;16.40;64.20;;;;;;5038411;28;20508;-72
2022/06/15 00:38:38;;;;;;;5.00;4.50;;;16.40;63.80;;;;;;5029587;28;20648;-71
2022/06/15 00:41:07;;;;;;;5.45;4.95;;;16.40;64.30;;;;;;5035736;28;20440;-72
2022/06/15 00:43:37;;;;;;;4.82;4.40;;;16.30;63.50;;;;;;5037735;28;20417;-71
2022/06/15 00:46:22;;;;;;;6.40;4.47;;;16.30;63.80;;;;;;5034660;28;20619;-72
2022/06/15 00:48:55;;;;;;;5.47;4.70;;;16.30;64.50;;;;;;5023508;28;20464;-70
2022/06/15 00:51:23;;;;;;;4.80;4.30;;;16.30;65.60;;;;;;5027563;28;20513;-70
2022/06/15 00:53:52;;;;;;;5.10;4.60;;;16.30;64.70;;;;;;5024126;28;20489;-71
2022/06/15 00:56:20;;;;;;;5.53;4.70;;;16.30;64.00;;;;;;5037515;28;20957;-71
2022/06/15 00:58:50;;;;;;;5.50;4.80;;;16.20;64.50;;;;;;5033077;28;20593;-71
2022/06/15 01:01:18;;;;;;;5.07;4.68;;;16.30;65.20;;;;;;5035311;28;20737;-72
2022/06/15 01:03:49;;;;;;;5.57;4.80;;;16.30;65.90;;;;;;5027242;28;20488;-71
2022/06/15 01:06:22;;;;;;;5.50;5.00;;;16.30;66.00;;;;;;5037576;28;20436;-71
2022/06/15 01:08:58;;;;;;;5.57;5.07;;;16.20;65.10;;;;;;5034981;28;20441;-70
2022/06/15 01:11:38;;;;;;;5.10;4.70;;;16.20;65.80;;;;;;5032093;28;20435;-71
2022/06/15 01:14:28;;;;;;;7.20;5.10;;;16.20;65.30;;;;;;5036924;28;20529;-71
2022/06/15 01:17:05;;;;;;;6.45;5.85;;;16.10;66.30;;;;;;5035764;28;20528;-71
2022/06/15 01:20:01;;;;;;;5.30;4.90;;;16.10;67.90;;;;;;5032143;28;20505;-71
2022/06/15 01:22:46;;;;;;;6.10;5.50;;;16.10;67.30;;;;;;5041659;28;20453;-71
2022/06/15 01:25:37;;;;;;;5.60;5.10;;;16.10;66.20;;;;;;5036807;28;20456;-72
2022/06/15 01:28:26;;;;;;;5.95;5.43;;;16.10;67.60;;;;;;5032397;28;20445;-71
2022/06/15 01:30:59;;;;;;;6.28;5.68;;;16.10;67.50;;;;;;5029192;28;20435;-71
2022/06/15 01:33:31;;;;;;;7.03;5.77;;;16.10;67.30;;;;;;5033785;28;20711;-72
2022/06/15 01:36:10;;;;;;;7.80;6.60;;;16.10;68.50;;;;;;5035518;28;20425;-71
2022/06/15 01:38:48;;;;;;;7.10;5.70;;;16.10;69.30;;;;;;5030784;28;20839;-70
2022/06/15 01:41:22;;;;;;;6.90;6.20;;;16.20;69.20;;;;;;5032778;28;20460;-72
2022/06/15 01:43:57;;;;;;;6.35;5.80;;;16.10;69.60;;;;;;5042597;28;20437;-72
2022/06/15 01:46:27;;;;;;;6.20;5.70;;;16.20;69.20;;;;;;5036146;28;20925;-72
2022/06/15 01:48:57;;;;;;;6.63;5.97;;;16.10;70.20;;;;;;5031072;28;20878;-71
2022/06/15 01:51:29;;;;;;;6.97;6.38;;;16.10;69.30;;;;;;5031204;28;20862;-71
2022/06/15 01:53:59;;;;;;;6.80;6.10;;;16.10;69.90;;;;;;5040146;28;20524;-72
2022/06/15 01:56:31;;;;;;;6.60;5.88;;;16.00;69.60;;;;;;5036603;28;20763;-71
2022/06/15 01:59:02;;;;;;;7.30;6.60;;;16.00;71.00;;;;;;5032706;28;20448;-71
2022/06/15 02:01:38;;;;;;;7.40;6.70;;;15.90;70.20;;;;;;5035839;28;20461;-72
2022/06/15 02:04:14;;;;;;;7.97;7.18;;;15.80;71.30;;;;;;5029120;28;20438;-71
2022/06/15 02:06:49;;;;;;;8.23;7.43;;;15.90;72.30;;;;;;5032900;28;20576;-72
2022/06/15 02:09:23;;;;;;;8.52;7.72;;;15.80;72.50;;;;;;5030858;28;20512;-71
2022/06/15 02:11:50;;;;;;;7.90;7.10;;;15.80;73.00;;;;;;5040224;28;21121;-71
2022/06/15 02:14:23;;;;;;;7.97;7.18;;;15.80;74.10;;;;;;5040788;28;20459;-71
2022/06/15 02:16:56;;;;;;;8.02;7.30;;;15.80;73.70;;;;;;5032826;28;20524;-72
2022/06/15 02:19:30;;;;;;;8.10;7.30;;;15.80;73.90;;;;;;5040554;28;20686;-71
2022/06/15 02:22:01;;;;;;;7.60;7.00;;;15.70;74.30;;;;;;5035254;28;20433;-71
2022/06/15 02:24:28;;;;;;;7.70;7.00;;;15.70;74.60;;;;;;5040119;28;20437;-71
2022/06/15 02:26:56;;;;;;;7.18;6.47;;;15.70;74.60;;;;;;5039819;28;20436;-72
2022/06/15 02:29:27;;;;;;;9.27;7.20;;;15.70;73.90;;;;;;5035493;28;20442;-72
2022/06/15 02:31:57;;;;;;;8.13;7.32;;;15.60;72.80;;;;;;5033881;28;20455;-71
2022/06/15 02:34:25;;;;;;;8.73;7.90;;;15.50;74.20;;;;;;5026537;28;20458;-72
2022/06/15 02:36:51;;;;;;;7.78;7.10;;;15.50;75.10;;;;;;5031437;28;20534;-72
2022/06/15 02:39:18;;;;;;;8.00;7.20;;;15.50;74.80;;;;;;5041604;28;20419;-72
2022/06/15 02:41:45;;;;;;;8.20;7.40;;;15.50;75.10;;;;;;5035598;28;20523;-72
2022/06/15 02:44:16;;;;;;;8.05;7.28;;;15.50;75.00;;;;;;5021312;28;20519;-72
2022/06/15 02:46:47;;;;;;;8.13;7.33;;;15.50;74.90;;;;;;5026205;28;20472;-71
2022/06/15 02:49:16;;;;;;;8.02;7.32;;;15.50;75.20;;;;;;5021422;28;20842;-71
2022/06/15 02:51:47;;;;;;;8.30;7.50;;;15.50;75.60;;;;;;5027076;28;20894;-71
2022/06/15 02:54:24;;;;;;;8.98;8.05;;;15.50;75.80;;;;;;5021576;28;20462;-71
2022/06/15 02:56:51;;;;;;;8.60;7.80;;;15.40;76.30;;;;;;5034714;28;20429;-72
2022/06/15 02:59:19;;;;;;;8.90;8.10;;;15.40;76.70;;;;;;5040504;28;20428;-72
2022/06/15 03:01:45;;;;;;;8.95;8.15;;;15.40;76.10;;;;;;5030668;28;20435;-71
2022/06/15 03:04:12;;;;;;;8.13;7.43;;;15.30;76.20;;;;;;5031723;28;21115;-72
2022/06/15 03:06:41;;;;;;;8.55;7.70;;;15.30;76.50;;;;;;5030517;28;20434;-72
2022/06/15 03:09:08;;;;;;;8.32;7.63;;;15.30;77.10;;;;;;5026148;28;20457;-72
2022/06/15 03:11:35;;;;;;;8.18;7.38;;;15.20;76.60;;;;;;5033100;28;20752;-71
2022/06/15 03:14:01;;;;;;;8.52;7.72;;;15.20;77.10;;;;;;5035814;28;20531;-72
2022/06/15 03:16:29;;;;;;;8.93;8.13;;;15.10;76.70;;;;;;5023763;28;20910;-72
2022/06/15 03:18:56;;;;;;;8.65;7.95;;;15.00;77.40;;;;;;5038056;28;20767;-72
2022/06/15 03:21:23;;;;;;;9.15;8.38;;;15.00;77.90;;;;;;5036299;28;20444;-72
2022/06/15 03:23:51;;;;;;;8.37;7.70;;;15.00;77.30;;;;;;5028048;28;20425;-72
2022/06/15 03:26:18;;;;;;;9.20;8.40;;;14.90;77.30;;;;;;5034895;28;20923;-70
2022/06/15 03:28:44;;;;;;;8.57;7.88;;;14.90;78.10;;;;;;5035027;28;20816;-70
2022/06/15 03:31:11;;;;;;;9.00;8.40;;;14.90;79.00;;;;;;5029436;28;20458;-70
2022/06/15 03:33:38;;;;;;;9.05;8.35;;;14.90;78.40;;;;;;5037076;28;20809;-70
2022/06/15 03:36:06;;;;;;;9.68;8.80;;;14.90;79.00;;;;;;5035049;28;20450;-70
2022/06/15 03:38:33;;;;;;;8.90;8.20;;;14.80;78.70;;;;;;5032910;28;20912;-70
2022/06/15 03:41:01;;;;;;;8.75;7.93;;;14.80;79.20;;;;;;5035410;28;20874;-70
2022/06/15 03:43:28;;;;;;;9.13;8.30;;;14.80;79.80;;;;;;5025027;28;21015;-70
2022/06/15 03:45:56;;;;;;;8.55;7.30;;;14.80;79.40;;;;;;5033679;28;20431;-70
2022/06/15 03:48:23;;;;;;;8.35;7.55;;;14.80;79.70;;;;;;5042254;28;20634;-70
2022/06/15 03:50:50;;;;;;;8.40;7.80;;;14.80;79.90;;;;;;5030541;28;20448;-70
2022/06/15 03:53:17;;;;;;;8.15;7.45;;;14.80;79.80;;;;;;5042233;28;20438;-70
2022/06/15 03:55:44;;;;;;;8.60;7.80;;;14.80;80.00;;;;;;5038124;28;20508;-70
2022/06/15 03:58:14;;;;;;;9.00;8.20;;;14.70;79.80;;;;;;5030506;28;20602;-70
2022/06/15 04:00:41;;;;;;;8.48;7.68;;;14.70;80.40;;;;;;5031671;28;20423;-70
2022/06/15 04:03:09;;;;;;;10.07;7.68;;;14.70;79.90;;;;;;5046963;28;20620;-70
2022/06/15 04:05:39;;;;;;;8.23;7.40;;;14.70;80.30;;;;;;5039771;28;20443;-70
2022/06/15 04:10:51;;;;;;;9.00;8.10;;;14.70;80.60;;;;;;5031130;28;20800;-70
2022/06/15 04:13:21;;;;;;;8.30;7.70;;;14.70;80.80;;;;;;5019480;28;20447;-70
2022/06/15 04:15:48;;;;;;;8.13;7.43;;;14.70;81.10;;;;;;5013622;28;20497;-72
2022/06/15 04:18:15;;;;;;;8.80;8.00;;;14.70;80.30;;;;;;5071449;22;20446;-74
2022/06/15 04:20:42;;;;;;;8.60;7.70;;;14.80;79.90;;;;;;5071185;28;20436;-73
2022/06/15 04:23:12;;;;;;;8.40;7.60;;;14.80;80.00;;;;;;5064004;28;20538;-75
2022/06/15 04:25:42;;;;;;;9.15;7.95;;;14.80;80.00;;;;;;5065064;28;20442;-75
2022/06/15 04:28:10;;;;;;;8.73;7.93;;;14.80;80.10;;;;;;5054133;28;20430;-77
2022/06/15 04:30:38;;;;;;;9.98;9.07;;;14.80;80.30;;;;;;5030293;28;20439;-75
2022/06/15 04:33:05;;;;;;;8.65;7.85;;;14.80;80.30;;;;;;5042675;28;20452;-76
2022/06/15 04:35:33;;;;;;;8.95;8.05;;;14.90;80.30;;;;;;5051251;28;20433;-79
2022/06/15 04:38:00;;;;;;;9.60;8.73;;;14.90;80.00;;;;;;5042029;28;20487;-76
2022/06/15 04:40:26;;;;;;;9.60;8.60;;;14.90;80.30;;;;;;5037775;28;20431;-77
2022/06/15 04:42:53;;;;;;;10.13;8.98;;;14.90;79.80;;;;;;5039845;28;20444;-74
2022/06/15 04:45:20;;;;;;;10.27;9.38;;;14.90;80.60;;;;;;5039138;28;20431;-72
2022/06/15 04:47:49;;;;;;;9.95;9.05;;;15.00;80.50;;;;;;5034476;28;20431;-74
2022/06/15 04:50:16;;;;;;;11.00;9.67;;;15.00;81.20;;;;;;5036387;28;20471;-74
2022/06/15 04:52:45;;;;;;;9.90;9.00;;;15.00;81.30;;;;;;5042550;28;21112;-75
2022/06/15 04:55:15;;;;;;;10.00;9.20;;;15.10;80.90;;;;;;5037186;28;21055;-75
2022/06/15 04:57:41;;;;;;;9.73;8.73;;;15.10;80.80;;;;;;5033644;28;20431;-73
2022/06/15 05:00:13;;;;;;;10.18;9.20;;;15.10;81.00;;;;;;5052621;28;20941;-67
2022/06/15 05:02:42;;;;;;;9.20;8.30;;;15.10;80.00;;;;;;5038930;28;20445;-67
2022/06/15 05:05:10;;;;;;;9.13;8.20;;;15.10;78.70;;;;;;5043454;28;20444;-67
2022/06/15 05:07:37;;;;;;;8.55;7.50;;;15.10;78.20;;;;;;5054241;28;20421;-68
2022/06/15 05:10:05;;;;;;;7.80;7.10;;;15.10;77.60;;;;;;5051386;28;20433;-67
2022/06/15 05:12:32;;;;;;;7.30;6.60;;;15.10;76.10;;;;;;5046159;28;20547;-67
2022/06/15 05:15:00;;;;;;;6.85;6.00;;;15.10;74.40;;;;;;5044252;28;20425;-67
2022/06/15 05:17:26;;;;;;;6.80;6.10;;;15.20;73.70;;;;;;5038594;28;20441;-67
2022/06/15 05:19:53;;;;;;;7.13;6.43;;;15.20;73.90;;;;;;5042121;28;20433;-68
2022/06/15 05:22:21;;;;;;;9.75;7.05;;;15.20;74.10;;;;;;5037664;28;20435;-69
2022/06/15 05:24:49;;;;;;;7.70;6.90;;;15.20;74.20;;;;;;5036765;28;20534;-70
2022/06/15 05:27:16;;;;;;;7.00;6.10;;;15.30;74.20;;;;;;5047890;28;20512;-73
2022/06/15 05:29:43;;;;;;;6.13;5.53;;;15.30;73.00;;;;;;5050918;28;20427;-76
2022/06/15 05:32:10;;;;;;;7.35;5.32;;;15.40;73.40;;;;;;5041968;28;20540;-75
2022/06/15 05:34:37;;;;;;;8.30;5.40;;;15.40;72.50;;;;;;5030623;28;20429;-77
2022/06/15 05:37:04;;;;;;;6.03;5.47;;;15.40;73.20;;;;;;5056655;28;20470;-76
2022/06/15 05:39:33;;;;;;;6.38;5.40;;;15.40;72.10;;;;;;5045862;28;20440;-77
2022/06/15 05:41:59;;;;;;;6.50;5.90;;;15.50;74.20;;;;;;5045212;28;20963;-76
2022/06/15 05:44:30;;;;;;;5.68;5.18;;;15.50;74.00;;;;;;5038067;28;20516;-75
2022/06/15 05:46:59;;;;;;;6.13;5.63;;;15.60;74.20;;;;;;5038222;28;20439;-75
2022/06/15 05:49:26;;;;;;;5.60;5.10;;;15.70;74.20;;;;;;5049930;28;20411;-76
2022/06/15 05:51:53;;;;;;;6.50;5.40;;;15.70;73.20;;;;;;5049689;28;20415;-75
2022/06/15 05:54:21;;;;;;;5.90;5.10;;;15.80;71.60;;;;;;5081232;28;20437;-75
2022/06/15 05:56:49;;;;;;;5.97;5.38;;;15.90;71.70;;;;;;5065366;28;20465;-76
2022/06/15 05:59:16;;;;;;;6.28;5.50;;;15.90;71.40;;;;;;5076335;28;20474;-76
2022/06/15 06:01:43;;;;;;;6.78;5.93;;;16.00;71.40;;;;;;5053494;28;20498;-77
2022/06/15 06:04:16;;;;;;;6.57;5.88;;;16.00;72.20;;;;;;5068890;28;20420;-77
2022/06/15 06:06:43;;;;;;;6.22;5.65;;;16.00;71.60;;;;;;5072575;28;20408;-75
2022/06/15 06:09:11;;;;;;;7.90;5.80;;;16.10;72.30;;;;;;5059376;28;20415;-75
2022/06/15 06:11:38;;;;;;;6.27;5.70;;;16.10;70.80;;;;;;5057784;28;20431;-75
2022/06/15 06:14:06;;;;;;;7.03;5.88;;;16.20;69.80;;;;;;5075537;28;20468;-75
2022/06/15 06:16:33;;;;;;;6.20;5.60;;;16.20;70.30;;;;;;5067263;28;20476;-77
2022/06/15 06:19:00;;;;;;;6.60;5.50;;;16.30;70.80;;;;;;5064296;28;20912;-76
2022/06/15 06:21:27;;;;;;;5.33;4.83;;;16.40;70.40;;;;;;5055215;28;20933;-78
2022/06/15 06:23:53;;;;;;;6.07;5.05;;;16.50;68.90;;;;;;5053220;28;20448;-76
2022/06/15 06:26:24;;;;;;;6.00;5.40;;;16.60;68.30;;;;;;5046702;28;20425;-76
2022/06/15 06:28:51;;;;;;;5.65;5.10;;;16.70;66.80;;;;;;5055729;28;20420;-76
2022/06/15 06:31:20;;;;;;;5.13;4.63;;;16.80;67.30;;;;;;5049413;28;20427;-79
2022/06/15 06:33:48;;;;;;;6.50;5.70;;;16.90;66.90;;;;;;5057220;28;20780;-76
2022/06/15 06:36:19;;;;;;;6.30;5.07;;;17.00;66.50;;;;;;5068326;28;20502;-75
2022/06/15 06:38:46;;;;;;;5.65;5.10;;;17.10;66.40;;;;;;5071614;28;20578;-77
2022/06/15 06:41:17;;;;;;;6.18;4.90;;;17.30;66.70;;;;;;5072750;28;20406;-77
2022/06/15 06:43:44;;;;;;;6.88;5.68;;;17.40;65.90;;;;;;5063229;28;20417;-77
2022/06/15 06:46:11;;;;;;;7.00;5.47;;;17.50;65.00;;;;;;5065516;28;20512;-77
2022/06/15 06:48:39;;;;;;;6.50;4.97;;;17.60;63.50;;;;;;5071016;28;20499;-77
2022/06/15 06:51:06;;;;;;;6.55;5.07;;;17.60;62.70;;;;;;5049604;28;20441;-78
2022/06/15 06:53:35;;;;;;;7.25;5.40;;;17.80;63.20;;;;;;5057633;28;20437;-77
2022/06/15 06:56:02;;;;;;;5.95;4.47;;;17.80;62.60;;;;;;5067187;28;20438;-79
2022/06/15 06:58:30;;;;;;;5.67;4.67;;;18.00;61.40;;;;;;5063227;28;20434;-79
2022/06/15 07:00:56;;;;;;;6.00;4.75;;;18.10;60.00;;;;;;5037720;28;20847;-77
2022/06/15 07:03:23;;;;;;;6.10;5.20;;;18.20;61.30;;;;;;5044442;28;20436;-76
2022/06/15 07:05:52;;;;;;;7.93;5.00;;;18.40;60.30;;;;;;5047502;28;20578;-73
2022/06/15 07:08:19;;;;;;;7.55;4.60;;;18.60;60.10;;;;;;5066102;28;20424;-75
2022/06/15 07:10:46;;;;;;;6.72;5.07;;;18.80;59.20;;;;;;5031937;28;20502;-76
2022/06/15 07:13:12;;;;;;;6.90;5.07;;;18.90;59.00;;;;;;5044689;28;20414;-75
2022/06/15 07:15:39;;;;;;;7.60;5.40;;;19.10;57.70;;;;;;5049231;28;20431;-77
2022/06/15 07:18:07;;;;;;;6.25;5.50;;;19.20;56.50;;;;;;5051374;28;20453;-77
2022/06/15 07:20:33;;;;;;;7.57;5.35;;;19.30;57.60;;;;;;5055854;28;20418;-78
2022/06/15 07:23:02;;;;;;;6.50;4.80;;;19.50;58.10;;;;;;5050281;28;20532;-77
2022/06/15 07:25:29;;;;;;;10.68;4.85;;;19.60;56.00;;;;;;5052629;28;20439;-78
2022/06/15 07:27:56;;;;;;;6.97;4.72;;;19.70;56.60;;;;;;5065768;28;21047;-78
2022/06/15 07:30:27;;;;;;;5.73;4.50;;;20.00;55.60;;;;;;5032119;28;20441;-75
2022/06/15 07:32:54;;;;;;;6.15;4.50;;;20.20;54.30;;;;;;5047301;28;20432;-76
2022/06/15 07:35:24;;;;;;;6.03;4.55;;;20.40;53.20;;;;;;5047508;28;20426;-77
2022/06/15 07:37:52;;;;;;;6.22;4.30;;;20.60;52.50;;;;;;5063886;28;20523;-78
2022/06/15 07:40:22;;;;;;;5.25;3.90;;;20.90;51.60;;;;;;5053835;28;20469;-77
2022/06/15 07:42:50;;;;;;;6.47;4.00;;;21.10;50.50;;;;;;5059468;28;20848;-78
2022/06/15 07:45:19;;;;;;;7.03;4.07;;;21.20;49.70;;;;;;5048637;28;20906;-78
2022/06/15 07:50:31;;;;;;;5.82;4.60;;;21.70;49.90;;;;;;5061641;28;20424;-77
2022/06/15 07:52:58;;;;;;;4.90;4.40;;;21.80;49.40;;;;;;5054669;28;20435;-75
2022/06/15 07:55:29;;;;;;;5.65;3.90;;;22.00;49.30;;;;;;5060191;28;20415;-76
2022/06/15 07:57:57;;;;;;;4.50;3.78;;;22.20;48.00;;;;;;5055617;28;20886;-78
2022/06/15 08:00:25;;;;;;;5.03;3.47;;;22.40;47.80;;;;;;5052309;28;20413;-79
2022/06/15 08:02:53;;;;;;;3.80;3.17;;;22.60;46.50;;;;;;5051751;28;20447;-76
2022/06/15 08:05:21;;;;;;;5.45;3.55;;;22.80;45.90;;;;;;5061524;28;20423;-78
2022/06/15 08:07:49;;;;;;;5.50;3.90;;;22.90;45.70;;;;;;5053638;28;20441;-77
2022/06/15 08:10:18;;;;;;;6.07;4.10;;;23.10;46.30;;;;;;5055184;28;20419;-78
2022/06/15 08:12:47;;;;;;;4.90;4.40;;;23.30;45.50;;;;;;5045751;28;20433;-79
2022/06/15 08:15:14;;;;;;;4.93;4.47;;;23.40;45.60;;;;;;5063359;28;20471;-77
2022/06/15 08:17:44;;;;;;;5.88;4.70;;;23.50;44.90;;;;;;5045189;28;20435;-78
2022/06/15 08:20:13;;;;;;;5.95;4.20;;;23.70;44.50;;;;;;5035752;28;20491;-78
2022/06/15 08:22:42;;;;;;;8.07;4.50;;;23.80;44.10;;;;;;5041851;28;20431;-78
2022/06/15 08:25:13;;;;;;;5.78;4.10;;;24.10;43.50;;;;;;5049316;28;20427;-78
2022/06/15 08:27:40;;;;;;;6.57;3.70;;;24.20;43.90;;;;;;5043362;28;20421;-78
2022/06/15 08:30:11;;;;;;;5.68;3.75;;;24.50;42.30;;;;;;5049502;28;20442;-78
2022/06/15 08:32:39;;;;;;;7.38;3.90;;;24.70;41.80;;;;;;5049766;28;20430;-79
2022/06/15 08:35:06;;;;;;;4.20;3.22;;;24.80;40.80;;;;;;5032630;28;20834;-78
2022/06/15 08:37:34;;;;;;;3.50;3.20;;;25.00;40.10;;;;;;5032753;28;20442;-78
2022/06/15 08:40:01;;;;;;;4.32;3.05;;;25.10;39.50;;;;;;5039027;28;20415;-78
2022/06/15 08:42:35;;;;;;;4.45;2.80;;;25.30;38.80;;;;;;5035638;28;20433;-79
2022/06/15 08:45:11;;;;;;;5.25;3.30;;;25.40;38.40;;;;;;5050895;28;20439;-77
2022/06/15 08:47:54;;;;;;;5.72;3.20;;;25.60;38.60;;;;;;5050660;28;20540;-76
2022/06/15 08:50:29;;;;;;;6.03;3.30;;;25.70;38.20;;;;;;5040016;28;20420;-79
2022/06/15 08:53:01;;;;;;;5.05;3.30;;;26.00;38.00;;;;;;5064659;28;20419;-77
2022/06/15 08:55:37;;;;;;;6.45;4.15;;;26.20;38.10;;;;;;5032748;28;20450;-78
2022/06/15 08:58:11;;;;;;;5.47;3.67;;;26.40;37.60;;;;;;5062842;28;20973;-78
2022/06/15 09:00:41;;;;;;;9.02;4.75;;;26.60;37.50;;;;;;5038345;28;20511;-78
2022/06/15 09:03:21;;;;;;;6.50;3.95;;;26.80;37.80;;;;;;5037890;28;20443;-78
2022/06/15 09:05:56;;;;;;;7.93;3.97;;;27.00;36.80;;;;;;5046612;28;20495;-76
2022/06/15 09:09:02;;;;;;;5.70;3.70;;;27.20;37.40;;;;;;5049843;28;20423;-78
2022/06/15 09:11:40;;;;;;;4.97;3.33;;;27.30;35.50;;;;;;5051399;28;20429;-78
2022/06/15 09:14:24;;;;;;;5.60;3.30;;;27.50;35.50;;;;;;5052193;28;20435;-77
2022/06/15 09:16:59;;;;;;;5.45;2.97;;;27.50;35.20;;;;;;5045532;28;20820;-77
2022/06/15 09:19:30;;;;;;;5.17;2.80;;;27.80;34.90;;;;;;5051278;28;20484;-78
2022/06/15 09:22:00;;;;;;;5.70;2.60;;;27.90;34.50;;;;;;5060119;28;20421;-78
2022/06/15 09:24:34;;;;;;;4.30;2.70;;;28.00;34.70;;;;;;5051804;28;20852;-77
2022/06/15 09:27:07;;;;;;;3.80;2.40;;;28.10;33.80;;;;;;5054679;28;20551;-77
2022/06/15 09:29:37;;;;;;;4.05;2.63;;;28.20;33.20;;;;;;5042555;28;20445;-78
2022/06/15 09:32:11;;;;;;;4.50;2.20;;;28.30;33.00;;;;;;5048710;28;20482;-78
2022/06/15 09:34:41;;;;;;;5.93;2.60;;;28.40;32.40;;;;;;5064028;28;20495;-76
2022/06/15 09:37:14;;;;;;;2.90;2.40;;;28.50;32.60;;;;;;5065515;28;20414;-78
2022/06/15 09:39:42;;;;;;;3.70;2.15;;;28.60;33.10;;;;;;5033017;28;20901;-78
2022/06/15 09:42:19;;;;;;;3.03;2.10;;;28.70;32.10;;;;;;5043518;28;20800;-78
2022/06/15 09:44:54;;;;;;;3.83;1.98;;;28.80;31.90;;;;;;5059242;28;20490;-78
2022/06/15 09:47:38;;;;;;;4.82;2.70;;;28.80;31.90;;;;;;5043606;28;20491;-77
2022/06/15 09:50:14;;;;;;;2.63;2.40;;;28.90;31.20;;;;;;5056575;28;20442;-77
2022/06/15 09:52:55;;;;;;;3.27;2.10;;;29.00;31.50;;;;;;5046129;28;20435;-77
2022/06/15 09:55:30;;;;;;;3.65;2.10;;;29.20;31.50;;;;;;5044969;28;20455;-77
2022/06/15 09:57:57;;;;;;;2.58;2.00;;;29.30;30.80;;;;;;5063101;28;20458;-76
2022/06/15 10:00:24;;;;;;;4.80;1.80;;;29.40;30.70;;;;;;5034350;28;20425;-78
2022/06/15 10:02:56;;;;;;;3.67;1.90;;;29.40;30.70;;;;;;5035025;28;20426;-78
2022/06/15 10:05:27;;;;;;;2.08;1.77;;;29.60;31.40;;;;;;5048743;28;20436;-78
2022/06/15 10:07:57;;;;;;;2.80;1.85;;;29.70;29.90;;;;;;5061684;28;20440;-77
2022/06/15 10:10:25;;;;;;;2.00;1.80;;;29.80;29.50;;;;;;5055942;28;20441;-75
2022/06/15 10:12:58;;;;;;;2.88;1.60;;;29.90;29.80;;;;;;5062838;28;20427;-79
2022/06/15 10:15:36;;;;;;;3.40;1.60;;;30.00;29.00;;;;;;5065335;28;20479;-78
2022/06/15 10:18:18;;;;;;;3.22;1.70;;;30.00;28.80;;;;;;5077050;22;20437;-79
2022/06/15 10:20:58;;;;;;;3.30;1.80;;;30.10;28.90;;;;;;5061010;28;21133;-79
2022/06/15 10:23:31;;;;;;;2.97;1.60;;;30.30;28.50;;;;;;5060431;28;20923;-80
2022/06/15 10:25:58;;;;;;;3.08;1.50;;;30.40;28.00;;;;;;5057436;28;20441;-80
2022/06/15 10:28:28;;;;;;;2.83;1.90;;;30.50;28.30;;;;;;5062514;28;20501;-82
2022/06/15 10:30:58;;;;;;;3.47;1.60;;;30.60;28.00;;;;;;5042937;28;20449;-80
2022/06/15 10:33:36;;;;;;;3.23;2.00;;;30.60;28.00;;;;;;5051992;28;20412;-81
2022/06/15 10:36:13;;;;;;;2.70;1.60;;;30.70;28.00;;;;;;5058896;28;20413;-81
2022/06/15 10:38:41;;;;;;;2.90;1.67;;;30.70;27.40;;;;;;5040816;28;20442;-80
2022/06/15 10:43:50;;;;;;;2.00;1.60;;;30.90;27.80;;;;;;5041703;28;20770;-80
2022/06/15 10:46:20;;;;;;;1.60;1.50;;;31.00;27.00;;;;;;5028684;28;20523;-79
2022/06/15 10:48:52;;;;;;;1.90;1.60;;;31.00;27.00;;;;;;5034305;28;20435;-80
2022/06/15 10:51:30;;;;;;;2.63;1.60;;;31.00;27.20;;;;;;5060933;28;20431;-79
2022/06/15 10:54:20;;;;;;;3.17;1.60;;;31.10;26.50;;;;;;5065374;28;20470;-79
2022/06/15 11:02:30;;;;;;;2.30;1.40;;;31.30;26.40;;;;;;5047122;28;20420;-79
2022/06/15 11:05:03;;;;;;;2.78;1.48;;;31.40;25.40;;;;;;5049912;28;20443;-78
2022/06/15 11:07:34;;;;;;;2.10;1.42;;;31.40;25.40;;;;;;5060832;28;20421;-79
2022/06/15 11:10:07;;;;;;;2.47;1.60;;;31.50;25.10;;;;;;5040567;28;20449;-78
2022/06/15 11:12:39;;;;;;;3.43;1.60;;;31.60;25.50;;;;;;5061158;28;20452;-77
2022/06/15 11:18:01;;;;;;;2.90;1.60;;;31.80;25.60;;;;;;5046825;28;20496;-78
2022/06/15 11:18:24;;;;;;;2.60;1.60;;;31.80;25.40;;;;;;4981739;28;1771249;-78
2022/06/15 11:20:58;;;;;;;2.03;1.20;;;31.90;25.10;;;;;;5057220;28;20899;-78
2022/06/15 11:23:28;;;;;;;2.22;1.50;;;32.00;24.90;;;;;;5052990;28;20422;-78
2022/06/15 11:26:00;;;;;;;2.13;1.70;;;32.00;24.70;;;;;;5055246;28;20421;-78
2022/06/15 11:28:33;;;;;;;1.85;1.40;;;31.90;25.00;;;;;;5054067;28;20888;-78
2022/06/15 11:31:04;;;;;;;1.50;1.40;;;31.90;25.10;;;;;;5043749;28;20867;-78
2022/06/15 11:33:40;;;;;;;3.28;1.20;;;31.80;24.40;;;;;;5061385;28;20839;-78
2022/06/15 11:36:14;;;;;;;1.45;1.35;;;31.90;25.50;;;;;;5055874;28;20415;-79
2022/06/15 11:38:49;;;;;;;1.45;1.35;;;32.00;24.20;;;;;;5055513;28;20451;-79
2022/06/15 11:41:24;;;;;;;1.90;1.20;;;32.20;24.10;;;;;;5049618;28;20517;-79
2022/06/15 11:43:53;;;;;;;2.50;1.20;;;32.40;24.20;;;;;;5035902;28;20487;-79
2022/06/15 11:46:37;;;;;;;4.20;1.30;;;32.50;23.30;;;;;;5053520;28;20416;-79
2022/06/15 11:49:26;;;;;;;2.65;1.60;;;32.50;23.50;;;;;;5033832;28;20950;-78
2022/06/15 11:52:07;;;;;;;1.70;1.40;;;32.30;24.20;;;;;;5052446;28;20451;-79
2022/06/15 11:54:54;;;;;;;2.70;1.40;;;32.20;24.20;;;;;;5061912;28;20446;-77
2022/06/15 11:57:34;;;;;;;3.50;1.70;;;32.10;24.30;;;;;;5052843;28;20407;-77
2022/06/15 12:00:14;;;;;;;2.60;1.60;;;32.00;23.40;;;;;;5078136;28;20507;-77
2022/06/15 12:02:56;;;;;;;2.25;1.40;;;31.90;24.80;;;;;;5063851;28;20423;-79
2022/06/15 12:05:31;;;;;;;1.60;1.40;;;32.00;23.50;;;;;;5065026;28;20428;-79
2022/06/15 12:08:20;;;;;;;2.20;1.60;;;32.20;23.60;;;;;;5046751;28;20508;-79
2022/06/15 12:10:51;;;;;;;1.70;1.50;;;32.20;24.70;;;;;;5056735;28;20653;-77
2022/06/15 12:13:38;;;;;;;1.90;1.37;;;32.30;23.30;;;;;;5073105;28;20515;-78
2022/06/15 12:16:10;;;;;;;2.92;1.40;;;32.40;24.00;;;;;;5064678;28;20479;-78
2022/06/15 12:18:52;;;;;;;1.60;1.30;;;32.60;24.60;;;;;;5052501;28;20530;-78
2022/06/15 12:21:26;;;;;;;2.13;1.30;;;32.80;23.90;;;;;;5053439;28;20440;-79
2022/06/15 12:24:04;;;;;;;2.10;1.50;;;32.80;23.50;;;;;;5059107;28;20517;-79
2022/06/15 12:26:40;;;;;;;1.50;1.40;;;32.80;24.00;;;;;;5056853;28;20459;-79
2022/06/15 12:29:17;;;;;;;1.40;1.30;;;32.80;24.30;;;;;;5059702;28;20423;-77
2022/06/15 12:31:54;;;;;;;1.97;1.33;;;33.00;23.80;;;;;;5053643;28;20526;-77
2022/06/15 12:34:34;;;;;;;1.70;1.50;;;33.10;23.60;;;;;;5052710;28;20470;-80
2022/06/15 12:37:08;;;;;;;2.88;1.55;;;33.20;24.10;;;;;;5053531;28;20525;-79
2022/06/15 12:39:47;;;;;;;2.42;1.60;;;33.30;23.30;;;;;;5036845;28;20921;-80
2022/06/15 12:42:17;;;;;;;3.40;1.70;;;33.40;23.90;;;;;;5042330;28;20460;-79
2022/06/15 12:44:53;;;;;;;2.25;1.40;;;33.50;24.10;;;;;;5050485;28;20476;-79
2022/06/15 12:47:22;;;;;;;3.30;1.80;;;33.50;23.60;;;;;;5063623;28;20485;-79
2022/06/15 12:50:18;;;;;;;1.80;1.17;;;33.40;23.60;;;;;;5061995;28;20460;-78
2022/06/15 12:52:51;;;;;;;4.53;1.90;;;33.20;22.60;;;;;;5052609;28;20458;-78
2022/06/15 12:55:25;;;;;;;1.95;1.50;;;33.10;22.70;;;;;;5045758;28;20517;-79
2022/06/15 12:58:02;;;;;;;2.28;1.40;;;33.00;23.80;;;;;;5060044;28;21048;-79
2022/06/15 13:00:35;;;;;;;2.45;1.60;;;32.90;23.30;;;;;;5029891;28;20415;-79
2022/06/15 13:03:16;;;;;;;2.00;1.33;;;32.90;24.00;;;;;;5044358;28;20463;-80
2022/06/15 13:05:43;;;;;;;2.30;1.42;;;33.00;23.60;;;;;;5051486;28;20485;-80
2022/06/15 13:08:20;;;;;;;2.10;1.30;;;33.00;24.10;;;;;;5038674;28;20442;-80
2022/06/15 13:11:17;;;;;;;2.70;1.50;;;32.90;23.00;;;;;;5056601;28;20454;-78
2022/06/15 13:13:48;;;;;;;2.10;1.48;;;33.10;23.60;;;;;;5011763;28;20460;-80
2022/06/15 13:16:30;;;;;;;2.28;1.70;;;33.10;22.70;;;;;;5050879;28;20520;-81
2022/06/15 13:18:58;;;;;;;2.17;1.40;;;33.20;23.60;;;;;;5059646;28;20447;-78
2022/06/15 13:21:28;;;;;;;3.20;1.48;;;33.20;23.30;;;;;;5055946;28;20432;-80